sensor_id;sensor_type;location;lat;lon;timestamp;pressure;altitude;pressure_sealevel;temperature;humidity
65019;BME280;66069;51.164;-114.452;2024-01-27T00:02:02;88102.00;;;16.66;43.00
65019;BME280;66069;51.164;-114.452;2024-01-27T00:04:28;88107.69;;;16.65;42.96
65019;BME280;66069;51.164;-114.452;2024-01-27T00:06:55;88112.19;;;16.64;43.03
65019;BME280;66069;51.164;-114.452;2024-01-27T00:09:21;88108.84;;;16.60;43.02
65019;BME280;66069;51.164;-114.452;2024-01-27T00:11:47;88115.25;;;16.63;42.97
65019;BME280;66069;51.164;-114.452;2024-01-27T00:14:13;88117.53;;;16.61;43.04
65019;BME280;66069;51.164;-114.452;2024-01-27T00:16:39;88109.25;;;16.59;43.09
65019;BME280;66069;51.164;-114.452;2024-01-27T00:19:05;88119.84;;;16.59;42.86
65019;BME280;66069;51.164;-114.452;2024-01-27T00:21:32;88125.88;;;16.59;43.27
65019;BME280;66069;51.164;-114.452;2024-01-27T00:23:58;88117.19;;;16.55;43.04
65019;BME280;66069;51.164;-114.452;2024-01-27T00:26:27;88126.25;;;16.58;42.91
65019;BME280;66069;51.164;-114.452;2024-01-27T00:28:53;88127.78;;;16.55;43.00
65019;BME280;66069;51.164;-114.452;2024-01-27T00:31:20;88133.81;;;16.56;42.94
65019;BME280;66069;51.164;-114.452;2024-01-27T00:33:46;88136.47;;;16.56;42.94
65019;BME280;66069;51.164;-114.452;2024-01-27T00:36:13;88135.72;;;16.55;43.06
65019;BME280;66069;51.164;-114.452;2024-01-27T00:38:42;88134.22;;;16.54;42.96
65019;BME280;66069;51.164;-114.452;2024-01-27T00:41:18;88136.50;;;16.52;42.91
65019;BME280;66069;51.164;-114.452;2024-01-27T00:43:45;88140.28;;;16.51;42.98
65019;BME280;66069;51.164;-114.452;2024-01-27T00:46:11;88136.88;;;16.51;42.99
65019;BME280;66069;51.164;-114.452;2024-01-27T00:48:37;88139.53;;;16.51;43.08
65019;BME280;66069;51.164;-114.452;2024-01-27T00:51:04;88137.66;;;16.48;42.89
65019;BME280;66069;51.164;-114.452;2024-01-27T00:53:30;88116.53;;;16.40;42.94
65019;BME280;66069;51.164;-114.452;2024-01-27T00:55:56;88124.44;;;16.48;42.71
65019;BME280;66069;51.164;-114.452;2024-01-27T00:58:23;88122.56;;;16.45;43.18
65019;BME280;66069;51.164;-114.452;2024-01-27T01:00:49;88129.75;;;16.44;43.02
65019;BME280;66069;51.164;-114.452;2024-01-27T01:03:15;88134.63;;;16.46;43.03
65019;BME280;66069;51.164;-114.452;2024-01-27T01:05:41;88128.63;;;16.41;42.92
65019;BME280;66069;51.164;-114.452;2024-01-27T01:08:07;88136.19;;;16.43;43.03
65019;BME280;66069;51.164;-114.452;2024-01-27T01:10:34;88126.00;;;16.41;42.94
65019;BME280;66069;51.164;-114.452;2024-01-27T01:13:00;88123.34;;;16.41;42.95
65019;BME280;66069;51.164;-114.452;2024-01-27T01:15:26;88120.31;;;16.39;42.97
65019;BME280;66069;51.164;-114.452;2024-01-27T01:17:53;88095.09;;;16.24;43.06
65019;BME280;66069;51.164;-114.452;2024-01-27T01:20:19;88125.25;;;16.37;43.05
65019;BME280;66069;51.164;-114.452;2024-01-27T01:22:45;88115.91;;;16.22;43.16
65019;BME280;66069;51.164;-114.452;2024-01-27T01:25:11;88123.00;;;16.36;43.07
65019;BME280;66069;51.164;-114.452;2024-01-27T01:27:37;88123.75;;;16.36;43.00
65019;BME280;66069;51.164;-114.452;2024-01-27T01:30:04;88120.75;;;16.31;43.08
65019;BME280;66069;51.164;-114.452;2024-01-27T01:32:31;88115.44;;;16.34;42.96
65019;BME280;66069;51.164;-114.452;2024-01-27T01:34:58;88113.56;;;16.31;42.96
65019;BME280;66069;51.164;-114.452;2024-01-27T01:37:25;88112.41;;;16.32;43.03
65019;BME280;66069;51.164;-114.452;2024-01-27T01:39:51;88114.72;;;16.30;42.94
65019;BME280;66069;51.164;-114.452;2024-01-27T01:42:17;88117.72;;;16.32;42.95
65019;BME280;66069;51.164;-114.452;2024-01-27T01:44:44;88116.97;;;16.32;42.93
65019;BME280;66069;51.164;-114.452;2024-01-27T01:47:10;88113.22;;;16.29;43.17
65019;BME280;66069;51.164;-114.452;2024-01-27T01:49:37;88113.97;;;16.30;42.90
65019;BME280;66069;51.164;-114.452;2024-01-27T01:52:04;88111.31;;;16.26;43.02
65019;BME280;66069;51.164;-114.452;2024-01-27T01:54:30;88102.63;;;16.29;43.03
65019;BME280;66069;51.164;-114.452;2024-01-27T01:56:58;88107.16;;;16.29;43.05
65019;BME280;66069;51.164;-114.452;2024-01-27T01:59:25;88102.28;;;16.27;42.91
65019;BME280;66069;51.164;-114.452;2024-01-27T02:01:51;88105.66;;;16.24;42.78
65019;BME280;66069;51.164;-114.452;2024-01-27T02:04:18;88115.09;;;16.25;42.92
65019;BME280;66069;51.164;-114.452;2024-01-27T02:06:44;88114.34;;;16.25;42.86
65019;BME280;66069;51.164;-114.452;2024-01-27T02:09:10;88114.75;;;16.23;42.77
65019;BME280;66069;51.164;-114.452;2024-01-27T02:11:37;88117.00;;;16.25;42.95
65019;BME280;66069;51.164;-114.452;2024-01-27T02:14:03;88115.50;;;16.24;42.93
65019;BME280;66069;51.164;-114.452;2024-01-27T02:16:30;88115.50;;;16.24;42.81
65019;BME280;66069;51.164;-114.452;2024-01-27T02:18:56;88117.03;;;16.21;43.34
65019;BME280;66069;51.164;-114.452;2024-01-27T02:21:22;88084.59;;;16.10;43.46
65019;BME280;66069;51.164;-114.452;2024-01-27T02:23:48;88095.47;;;16.23;44.05
65019;BME280;66069;51.164;-114.452;2024-01-27T02:26:14;88091.72;;;16.20;44.41
65019;BME280;66069;51.164;-114.452;2024-01-27T02:28:41;88096.25;;;16.23;44.88
65019;BME280;66069;51.164;-114.452;2024-01-27T02:31:07;88101.88;;;16.25;44.85
65019;BME280;66069;51.164;-114.452;2024-01-27T02:33:33;88099.25;;;16.25;45.46
65019;BME280;66069;51.164;-114.452;2024-01-27T02:35:59;88096.19;;;16.27;46.01
65019;BME280;66069;51.164;-114.452;2024-01-27T02:38:26;88092.78;;;16.30;46.43
65019;BME280;66069;51.164;-114.452;2024-01-27T02:40:52;88096.94;;;16.31;46.39
65019;BME280;66069;51.164;-114.452;2024-01-27T02:43:18;88096.19;;;16.34;46.45
65019;BME280;66069;51.164;-114.452;2024-01-27T02:45:44;88085.19;;;16.35;46.42
65019;BME280;66069;51.164;-114.452;2024-01-27T02:48:10;88072.78;;;16.29;46.86
65019;BME280;66069;51.164;-114.452;2024-01-27T02:50:37;88081.00;;;16.38;46.69
65019;BME280;66069;51.164;-114.452;2024-01-27T02:53:03;88074.97;;;16.37;46.31
65019;BME280;66069;51.164;-114.452;2024-01-27T02:55:29;88076.47;;;16.42;46.35
65019;BME280;66069;51.164;-114.452;2024-01-27T02:57:55;88071.22;;;16.35;46.12
65019;BME280;66069;51.164;-114.452;2024-01-27T03:00:22;88065.13;;;16.41;45.83
65019;BME280;66069;51.164;-114.452;2024-01-27T03:02:48;88068.13;;;16.43;45.64
65019;BME280;66069;51.164;-114.452;2024-01-27T03:05:14;88057.94;;;16.42;45.64
65019;BME280;66069;51.164;-114.452;2024-01-27T03:07:40;88055.69;;;16.40;45.52
65019;BME280;66069;51.164;-114.452;2024-01-27T03:10:07;88055.63;;;16.44;45.50
65019;BME280;66069;51.164;-114.452;2024-01-27T03:12:33;88040.91;;;16.43;45.27
65019;BME280;66069;51.164;-114.452;2024-01-27T03:14:59;88048.44;;;16.45;45.38
65019;BME280;66069;51.164;-114.452;2024-01-27T03:17:25;88045.44;;;16.46;45.03
65019;BME280;66069;51.164;-114.452;2024-01-27T03:19:52;88042.78;;;16.46;45.09
65019;BME280;66069;51.164;-114.452;2024-01-27T03:22:18;88035.97;;;16.45;44.95
65019;BME280;66069;51.164;-114.452;2024-01-27T03:24:44;88045.81;;;16.45;44.80
65019;BME280;66069;51.164;-114.452;2024-01-27T03:27:11;88044.66;;;16.46;44.79
65019;BME280;66069;51.164;-114.452;2024-01-27T03:29:37;88039.00;;;16.47;44.73
65019;BME280;66069;51.164;-114.452;2024-01-27T03:32:03;88034.88;;;16.42;44.77
65019;BME280;66069;51.164;-114.452;2024-01-27T03:34:31;88044.66;;;16.46;44.46
65019;BME280;66069;51.164;-114.452;2024-01-27T03:36:57;88043.91;;;16.45;44.57
65019;BME280;66069;51.164;-114.452;2024-01-27T03:39:23;88037.16;;;16.40;44.57
65019;BME280;66069;51.164;-114.452;2024-01-27T03:41:49;88046.56;;;16.45;44.74
65019;BME280;66069;51.164;-114.452;2024-01-27T03:44:15;88043.53;;;16.47;44.43
65019;BME280;66069;51.164;-114.452;2024-01-27T03:46:42;88031.13;;;16.40;44.34
65019;BME280;66069;51.164;-114.452;2024-01-27T03:49:08;88043.53;;;16.47;44.25
65019;BME280;66069;51.164;-114.452;2024-01-27T03:51:34;88045.44;;;16.46;44.26
65019;BME280;66069;51.164;-114.452;2024-01-27T03:54:00;88049.94;;;16.46;44.33
65019;BME280;66069;51.164;-114.452;2024-01-27T03:56:26;88044.34;;;16.40;44.31
65019;BME280;66069;51.164;-114.452;2024-01-27T03:58:53;88046.56;;;16.45;44.65
65019;BME280;66069;51.164;-114.452;2024-01-27T04:01:19;88050.34;;;16.44;45.18
65019;BME280;66069;51.164;-114.452;2024-01-27T04:03:45;88042.81;;;16.42;45.43
65019;BME280;66069;51.164;-114.452;2024-01-27T04:06:11;88047.69;;;16.48;45.72
65019;BME280;66069;51.164;-114.452;2024-01-27T04:08:37;88050.28;;;16.51;45.98
65019;BME280;66069;51.164;-114.452;2024-01-27T04:11:05;88037.84;;;16.48;46.52
65019;BME280;66069;51.164;-114.452;2024-01-27T04:13:31;88058.97;;;16.55;46.57
65019;BME280;66069;51.164;-114.452;2024-01-27T04:15:57;88063.50;;;16.58;46.42
65019;BME280;66069;51.164;-114.452;2024-01-27T04:18:27;88052.13;;;16.58;46.62
65019;BME280;66069;51.164;-114.452;2024-01-27T04:20:53;88042.66;;;16.60;46.74
65019;BME280;66069;51.164;-114.452;2024-01-27T04:23:19;88050.94;;;16.66;46.97
65019;BME280;66069;51.164;-114.452;2024-01-27T04:25:48;88052.84;;;16.65;47.06
65019;BME280;66069;51.164;-114.452;2024-01-27T04:28:14;88052.84;;;16.65;46.81
65019;BME280;66069;51.164;-114.452;2024-01-27T04:30:40;88053.53;;;16.69;46.75
65019;BME280;66069;51.164;-114.452;2024-01-27T04:33:06;88044.09;;;16.68;46.63
65019;BME280;66069;51.164;-114.452;2024-01-27T04:35:33;88044.47;;;16.71;46.47
65019;BME280;66069;51.164;-114.452;2024-01-27T04:38:00;88036.53;;;16.71;46.26
65019;BME280;66069;51.164;-114.452;2024-01-27T04:40:26;88046.38;;;16.74;46.07
65019;BME280;66069;51.164;-114.452;2024-01-27T04:42:52;88036.16;;;16.72;46.13
65019;BME280;66069;51.164;-114.452;2024-01-27T04:45:18;88030.88;;;16.72;45.91
65019;BME280;66069;51.164;-114.452;2024-01-27T04:47:44;88021.78;;;16.69;45.62
65019;BME280;66069;51.164;-114.452;2024-01-27T04:50:11;88024.44;;;16.73;45.59
65019;BME280;66069;51.164;-114.452;2024-01-27T04:52:37;88028.94;;;16.76;45.55
65019;BME280;66069;51.164;-114.452;2024-01-27T04:55:03;88020.63;;;16.74;45.58
65019;BME280;66069;51.164;-114.452;2024-01-27T04:57:30;88034.22;;;16.76;45.51
65019;BME280;66069;51.164;-114.452;2024-01-27T04:59:57;88024.44;;;16.73;45.36
65019;BME280;66069;51.164;-114.452;2024-01-27T05:02:23;88018.00;;;16.74;45.40
65019;BME280;66069;51.164;-114.452;2024-01-27T05:04:49;88025.16;;;16.77;45.20
65019;BME280;66069;51.164;-114.452;2024-01-27T05:07:15;88012.28;;;16.76;45.14
65019;BME280;66069;51.164;-114.452;2024-01-27T05:09:42;88005.84;;;16.77;45.03
65019;BME280;66069;51.164;-114.452;2024-01-27T05:12:08;87997.97;;;16.73;44.89
65019;BME280;66069;51.164;-114.452;2024-01-27T05:14:34;87990.00;;;16.73;44.96
65019;BME280;66069;51.164;-114.452;2024-01-27T05:17:01;87991.84;;;16.76;44.95
65019;BME280;66069;51.164;-114.452;2024-01-27T05:19:27;88002.09;;;16.74;44.77
65019;BME280;66069;51.164;-114.452;2024-01-27T05:21:53;88003.59;;;16.75;44.74
65019;BME280;66069;51.164;-114.452;2024-01-27T05:24:19;87988.88;;;16.71;44.64
65019;BME280;66069;51.164;-114.452;2024-01-27T05:26:45;87995.31;;;16.73;44.71
65019;BME280;66069;51.164;-114.452;2024-01-27T05:29:11;87989.63;;;16.75;44.74
65019;BME280;66069;51.164;-114.452;2024-01-27T05:31:38;87990.78;;;16.70;44.65
65019;BME280;66069;51.164;-114.452;2024-01-27T05:34:04;87996.06;;;16.74;44.67
65019;BME280;66069;51.164;-114.452;2024-01-27T05:36:30;88001.00;;;16.72;44.64
65019;BME280;66069;51.164;-114.452;2024-01-27T05:38:56;87994.56;;;16.73;44.43
65019;BME280;66069;51.164;-114.452;2024-01-27T05:41:26;87984.72;;;16.69;44.50
65019;BME280;66069;51.164;-114.452;2024-01-27T05:43:54;87984.34;;;16.67;44.45
65019;BME280;66069;51.164;-114.452;2024-01-27T05:46:23;87984.72;;;16.69;44.50
65019;BME280;66069;51.164;-114.452;2024-01-27T05:48:50;88001.34;;;16.74;44.41
65019;BME280;66069;51.164;-114.452;2024-01-27T05:51:29;87982.47;;;16.72;44.36
65019;BME280;66069;51.164;-114.452;2024-01-27T05:53:59;87980.56;;;16.72;44.34
65019;BME280;66069;51.164;-114.452;2024-01-27T05:56:25;87975.66;;;16.71;44.31
65019;BME280;66069;51.164;-114.452;2024-01-27T05:58:51;87977.53;;;16.70;44.15
65019;BME280;66069;51.164;-114.452;2024-01-27T06:01:18;87964.34;;;16.63;44.20
65019;BME280;66069;51.164;-114.452;2024-01-27T06:03:45;87972.25;;;16.70;44.15
65019;BME280;66069;51.164;-114.452;2024-01-27T06:06:11;87968.88;;;16.66;44.26
65019;BME280;66069;51.164;-114.452;2024-01-27T06:08:37;87967.38;;;16.65;44.25
65019;BME280;66069;51.164;-114.452;2024-01-27T06:11:04;87954.16;;;16.61;44.25
65019;BME280;66069;51.164;-114.452;2024-01-27T06:13:30;87954.50;;;16.63;44.22
65019;BME280;66069;51.164;-114.452;2024-01-27T06:15:58;87953.81;;;16.59;44.12
65019;BME280;66069;51.164;-114.452;2024-01-27T06:18:25;87962.09;;;16.65;44.05
65019;BME280;66069;51.164;-114.452;2024-01-27T06:20:51;87968.13;;;16.65;44.18
65019;BME280;66069;51.164;-114.452;2024-01-27T06:23:17;87965.47;;;16.65;44.01
65019;BME280;66069;51.164;-114.452;2024-01-27T06:25:43;87939.50;;;16.53;43.99
65019;BME280;66069;51.164;-114.452;2024-01-27T06:28:10;87967.00;;;16.63;43.99
65019;BME280;66069;51.164;-114.452;2024-01-27T06:30:36;87951.25;;;16.49;44.02
65019;BME280;66069;51.164;-114.452;2024-01-27T06:33:02;87966.25;;;16.62;43.92
65019;BME280;66069;51.164;-114.452;2024-01-27T06:35:28;87972.28;;;16.63;43.99
65019;BME280;66069;51.164;-114.452;2024-01-27T06:37:54;87974.94;;;16.63;43.99
65019;BME280;66069;51.164;-114.452;2024-01-27T06:40:21;87970.41;;;16.63;43.97
65019;BME280;66069;51.164;-114.452;2024-01-27T06:42:47;87971.19;;;16.60;43.87
65019;BME280;66069;51.164;-114.452;2024-01-27T06:45:13;87970.03;;;16.61;43.89
65019;BME280;66069;51.164;-114.452;2024-01-27T06:47:39;87969.28;;;16.61;43.89
65019;BME280;66069;51.164;-114.452;2024-01-27T06:50:06;87959.09;;;16.59;43.91
65019;BME280;66069;51.164;-114.452;2024-01-27T06:52:32;87951.19;;;16.56;43.88
65019;BME280;66069;51.164;-114.452;2024-01-27T06:54:59;87959.09;;;16.59;43.92
65019;BME280;66069;51.164;-114.452;2024-01-27T06:57:25;87957.22;;;16.56;43.78
65019;BME280;66069;51.164;-114.452;2024-01-27T06:59:52;87955.72;;;16.59;43.86
65019;BME280;66069;51.164;-114.452;2024-01-27T07:02:28;87951.53;;;16.58;43.83
65019;BME280;66069;51.164;-114.452;2024-01-27T07:04:55;87956.84;;;16.58;43.93
65019;BME280;66069;51.164;-114.452;2024-01-27T07:07:26;87941.34;;;16.56;43.79
65019;BME280;66069;51.164;-114.452;2024-01-27T07:09:55;87947.78;;;16.55;43.83
65019;BME280;66069;51.164;-114.452;2024-01-27T07:12:21;87934.97;;;16.50;43.82
65019;BME280;66069;51.164;-114.452;2024-01-27T07:14:48;87939.50;;;16.53;43.90
65019;BME280;66069;51.164;-114.452;2024-01-27T07:17:14;87938.75;;;16.53;43.78
65019;BME280;66069;51.164;-114.452;2024-01-27T07:19:40;87930.06;;;16.52;43.80
65019;BME280;66069;51.164;-114.452;2024-01-27T07:22:06;87930.06;;;16.52;43.64
65019;BME280;66069;51.164;-114.452;2024-01-27T07:24:33;87935.34;;;16.52;43.79
65019;BME280;66069;51.164;-114.452;2024-01-27T07:27:02;87928.19;;;16.49;43.74
65019;BME280;66069;51.164;-114.452;2024-01-27T07:29:29;87934.22;;;16.50;43.68
65019;BME280;66069;51.164;-114.452;2024-01-27T07:31:56;87927.44;;;16.49;43.71
65019;BME280;66069;51.164;-114.452;2024-01-27T07:34:22;87926.72;;;16.45;43.70
65019;BME280;66069;51.164;-114.452;2024-01-27T07:36:48;87939.19;;;16.48;43.59
65019;BME280;66069;51.164;-114.452;2024-01-27T07:39:15;87924.47;;;16.43;43.52
65019;BME280;66069;51.164;-114.452;2024-01-27T07:41:41;87917.63;;;16.46;43.66
65019;BME280;66069;51.164;-114.452;2024-01-27T07:44:14;87902.16;;;16.44;43.56
65019;BME280;66069;51.164;-114.452;2024-01-27T07:46:42;87897.28;;;16.39;43.48
65019;BME280;66069;51.164;-114.452;2024-01-27T07:49:08;87895.75;;;16.41;43.46
65019;BME280;66069;51.164;-114.452;2024-01-27T07:51:35;87898.00;;;16.43;43.56
65019;BME280;66069;51.164;-114.452;2024-01-27T07:54:01;87893.13;;;16.38;43.39
65019;BME280;66069;51.164;-114.452;2024-01-27T07:56:28;87886.31;;;16.40;43.63
65019;BME280;66069;51.164;-114.452;2024-01-27T07:58:54;87895.75;;;16.41;43.59
65019;BME280;66069;51.164;-114.452;2024-01-27T08:01:20;87884.41;;;16.41;43.40
65019;BME280;66069;51.164;-114.452;2024-01-27T08:03:46;87894.28;;;16.37;43.62
65019;BME280;66069;51.164;-114.452;2024-01-27T08:06:17;87891.97;;;16.39;43.60
65019;BME280;66069;51.164;-114.452;2024-01-27T08:08:47;87887.16;;;16.34;43.40
65019;BME280;66069;51.164;-114.452;2024-01-27T08:11:18;87881.81;;;16.37;43.45
65019;BME280;66069;51.164;-114.452;2024-01-27T08:13:44;87894.28;;;16.37;43.45
65019;BME280;66069;51.164;-114.452;2024-01-27T08:16:11;87885.63;;;16.33;43.50
65019;BME280;66069;51.164;-114.452;2024-01-27T08:18:39;87889.38;;;16.35;43.56
65019;BME280;66069;51.164;-114.452;2024-01-27T08:21:08;87887.16;;;16.30;43.51
65019;BME280;66069;51.164;-114.452;2024-01-27T08:23:34;87890.16;;;16.32;43.52
65019;BME280;66069;51.164;-114.452;2024-01-27T08:26:00;87873.53;;;16.32;43.38
65019;BME280;66069;51.164;-114.452;2024-01-27T08:28:27;87883.03;;;16.29;43.56
65019;BME280;66069;51.164;-114.452;2024-01-27T08:30:53;87883.38;;;16.31;43.41
65019;BME280;66069;51.164;-114.452;2024-01-27T08:33:19;87891.31;;;16.31;43.21
65019;BME280;66069;51.164;-114.452;2024-01-27T08:35:48;87895.09;;;16.30;43.46
65019;BME280;66069;51.164;-114.452;2024-01-27T08:38:15;87884.94;;;16.25;43.56
65019;BME280;66069;51.164;-114.452;2024-01-27T08:40:41;87878.19;;;16.21;43.47
65019;BME280;66069;51.164;-114.452;2024-01-27T08:43:07;87882.69;;;16.27;43.35
65019;BME280;66069;51.164;-114.452;2024-01-27T08:45:37;87888.72;;;16.28;43.45
65019;BME280;66069;51.164;-114.452;2024-01-27T08:48:04;87880.78;;;16.24;43.30
65019;BME280;66069;51.164;-114.452;2024-01-27T08:50:31;87886.44;;;16.26;43.42
65019;BME280;66069;51.164;-114.452;2024-01-27T08:52:57;87889.09;;;16.26;43.36
65019;BME280;66069;51.164;-114.452;2024-01-27T08:55:23;87885.69;;;16.26;43.36
65019;BME280;66069;51.164;-114.452;2024-01-27T08:57:50;87856.38;;;16.09;43.46
65019;BME280;66069;51.164;-114.452;2024-01-27T09:00:17;87866.16;;;16.16;43.47
65019;BME280;66069;51.164;-114.452;2024-01-27T09:02:43;87885.75;;;16.22;43.43
65019;BME280;66069;51.164;-114.452;2024-01-27T09:05:10;87891.41;;;16.21;43.43
65019;BME280;66069;51.164;-114.452;2024-01-27T09:07:36;87877.47;;;16.17;43.43
65019;BME280;66069;51.164;-114.452;2024-01-27T09:10:03;87879.31;;;16.23;43.10
65019;BME280;66069;51.164;-114.452;2024-01-27T09:12:29;87878.19;;;16.21;43.26
65019;BME280;66069;51.164;-114.452;2024-01-27T09:14:56;87875.94;;;16.19;43.25
65019;BME280;66069;51.164;-114.452;2024-01-27T09:17:22;87886.09;;;16.21;43.36
65019;BME280;66069;51.164;-114.452;2024-01-27T09:19:48;87883.47;;;16.21;43.35
65019;BME280;66069;51.164;-114.452;2024-01-27T09:22:15;87877.44;;;16.20;43.72
65019;BME280;66069;51.164;-114.452;2024-01-27T09:24:41;87885.00;;;16.18;43.41
65019;BME280;66069;51.164;-114.452;2024-01-27T09:27:07;87874.44;;;16.14;43.28
65019;BME280;66069;51.164;-114.452;2024-01-27T09:29:33;87867.66;;;16.17;43.25
65019;BME280;66069;51.164;-114.452;2024-01-27T09:32:00;87866.56;;;16.11;43.46
65019;BME280;66069;51.164;-114.452;2024-01-27T09:34:26;87874.44;;;16.14;43.32
65019;BME280;66069;51.164;-114.452;2024-01-27T09:36:53;87866.56;;;16.11;43.34
65019;BME280;66069;51.164;-114.452;2024-01-27T09:39:19;87856.47;;;15.99;43.40
65019;BME280;66069;51.164;-114.452;2024-01-27T09:41:47;87862.38;;;16.13;43.42
65019;BME280;66069;51.164;-114.452;2024-01-27T09:44:17;87862.44;;;16.10;43.32
65019;BME280;66069;51.164;-114.452;2024-01-27T09:46:45;87864.28;;;16.13;43.33
65019;BME280;66069;51.164;-114.452;2024-01-27T09:49:14;87860.88;;;16.12;43.31
65019;BME280;66069;51.164;-114.452;2024-01-27T09:51:41;87858.63;;;16.11;43.30
65019;BME280;66069;51.164;-114.452;2024-01-27T09:54:08;87855.97;;;16.11;43.42
65019;BME280;66069;51.164;-114.452;2024-01-27T09:56:34;87842.03;;;16.07;43.32
65019;BME280;66069;51.164;-114.452;2024-01-27T09:59:01;87860.53;;;16.10;43.25
65019;BME280;66069;51.164;-114.452;2024-01-27T10:01:28;87856.06;;;16.04;43.27
65019;BME280;66069;51.164;-114.452;2024-01-27T10:03:55;87866.97;;;16.06;43.39
65019;BME280;66069;51.164;-114.452;2024-01-27T10:06:22;87844.81;;;15.96;43.21
65019;BME280;66069;51.164;-114.452;2024-01-27T10:08:55;87864.34;;;16.06;43.19
65019;BME280;66069;51.164;-114.452;2024-01-27T10:11:22;87866.25;;;16.05;43.19
65019;BME280;66069;51.164;-114.452;2024-01-27T10:13:56;87842.09;;;16.00;43.12
65019;BME280;66069;51.164;-114.452;2024-01-27T10:16:22;87845.91;;;15.99;43.40
65019;BME280;66069;51.164;-114.452;2024-01-27T10:18:59;87840.94;;;16.04;43.18
65019;BME280;66069;51.164;-114.452;2024-01-27T10:21:26;87835.66;;;16.01;43.20
65019;BME280;66069;51.164;-114.452;2024-01-27T10:23:53;87829.22;;;16.02;43.54
65019;BME280;66069;51.164;-114.452;2024-01-27T10:26:19;87832.25;;;16.04;43.24
65019;BME280;66069;51.164;-114.452;2024-01-27T10:28:55;87833.41;;;15.99;43.23
65019;BME280;66069;51.164;-114.452;2024-01-27T10:31:28;87840.56;;;16.02;43.25
65019;BME280;66069;51.164;-114.452;2024-01-27T10:33:56;87828.47;;;16.01;43.13
65019;BME280;66069;51.164;-114.452;2024-01-27T10:36:25;87831.13;;;16.01;43.28
65019;BME280;66069;51.164;-114.452;2024-01-27T10:38:52;87821.75;;;15.97;43.15
65019;BME280;66069;51.164;-114.452;2024-01-27T10:41:24;87831.53;;;16.00;43.20
65019;BME280;66069;51.164;-114.452;2024-01-27T10:43:52;87822.09;;;15.99;43.16
65019;BME280;66069;51.164;-114.452;2024-01-27T10:46:19;87814.56;;;15.97;43.19
65019;BME280;66069;51.164;-114.452;2024-01-27T10:48:52;87809.28;;;15.97;43.32
65019;BME280;66069;51.164;-114.452;2024-01-27T10:51:36;87813.81;;;15.97;43.17
65019;BME280;66069;51.164;-114.452;2024-01-27T10:54:04;87797.19;;;15.96;43.29
65019;BME280;66069;51.164;-114.452;2024-01-27T10:56:33;87789.28;;;15.93;43.37
65019;BME280;66069;51.164;-114.452;2024-01-27T10:59:00;87779.47;;;15.93;43.17
65019;BME280;66069;51.164;-114.452;2024-01-27T11:01:28;87785.09;;;15.95;43.14
65019;BME280;66069;51.164;-114.452;2024-01-27T11:03:57;87760.63;;;15.87;43.29
65019;BME280;66069;51.164;-114.452;2024-01-27T11:06:25;87769.22;;;15.95;43.21
65019;BME280;66069;51.164;-114.452;2024-01-27T11:08:54;87776.81;;;15.93;43.26
65019;BME280;66069;51.164;-114.452;2024-01-27T11:11:21;87772.69;;;15.92;43.34
65019;BME280;66069;51.164;-114.452;2024-01-27T11:13:48;87759.09;;;15.90;43.09
65019;BME280;66069;51.164;-114.452;2024-01-27T11:16:17;87767.00;;;15.94;43.12
65019;BME280;66069;51.164;-114.452;2024-01-27T11:18:45;87762.50;;;15.91;43.26
65019;BME280;66069;51.164;-114.452;2024-01-27T11:21:15;87750.38;;;15.93;43.29
65019;BME280;66069;51.164;-114.452;2024-01-27T11:23:42;87754.16;;;15.92;43.31
65019;BME280;66069;51.164;-114.452;2024-01-27T11:26:09;87746.25;;;15.92;43.22
65019;BME280;66069;51.164;-114.452;2024-01-27T11:28:36;87745.50;;;15.92;43.16
65019;BME280;66069;51.164;-114.452;2024-01-27T11:31:04;87742.47;;;15.89;43.11
65019;BME280;66069;51.164;-114.452;2024-01-27T11:33:31;87748.53;;;15.90;43.26
65019;BME280;66069;51.164;-114.452;2024-01-27T11:36:04;87748.53;;;15.90;43.15
65019;BME280;66069;51.164;-114.452;2024-01-27T11:38:31;87760.59;;;15.91;43.17
65019;BME280;66069;51.164;-114.452;2024-01-27T11:41:00;87749.72;;;15.85;43.24
65019;BME280;66069;51.164;-114.452;2024-01-27T11:43:27;87771.59;;;15.86;43.17
65019;BME280;66069;51.164;-114.452;2024-01-27T11:46:00;87776.50;;;15.87;43.23
65019;BME280;66069;51.164;-114.452;2024-01-27T11:48:26;87777.25;;;15.88;43.21
65019;BME280;66069;51.164;-114.452;2024-01-27T11:51:06;87764.06;;;15.84;43.31
65019;BME280;66069;51.164;-114.452;2024-01-27T11:53:34;87771.59;;;15.86;43.06
65019;BME280;66069;51.164;-114.452;2024-01-27T11:56:00;87768.22;;;15.85;43.21
65019;BME280;66069;51.164;-114.452;2024-01-27T11:58:27;87779.53;;;15.86;43.33
65019;BME280;66069;51.164;-114.452;2024-01-27T12:00:56;87778.41;;;15.83;43.28
65019;BME280;66069;51.164;-114.452;2024-01-27T12:03:24;87791.63;;;15.83;43.46
65019;BME280;66069;51.164;-114.452;2024-01-27T12:05:51;87789.38;;;15.85;43.75
65019;BME280;66069;51.164;-114.452;2024-01-27T12:08:17;87799.97;;;15.82;43.63
65019;BME280;66069;51.164;-114.452;2024-01-27T12:10:44;87787.47;;;15.86;43.90
65019;BME280;66069;51.164;-114.452;2024-01-27T12:13:10;87790.13;;;15.86;44.16
65019;BME280;66069;51.164;-114.452;2024-01-27T12:15:36;87788.63;;;15.85;44.09
65019;BME280;66069;51.164;-114.452;2024-01-27T12:18:04;87794.25;;;15.87;44.34
65019;BME280;66069;51.164;-114.452;2024-01-27T12:20:31;87797.69;;;15.84;44.43
65019;BME280;66069;51.164;-114.452;2024-01-27T12:25:31;87785.97;;;15.85;45.14
65019;BME280;66069;51.164;-114.452;2024-01-27T12:27:57;87774.56;;;15.92;45.61
65019;BME280;66069;51.164;-114.452;2024-01-27T12:30:27;87766.25;;;15.89;45.57
65019;BME280;66069;51.164;-114.452;2024-01-27T12:32:53;87779.78;;;15.99;45.90